Time;durP1;ratioP1;P1;durP2;ratioP2;P2;SDS_P1;SDS_P2;PMS_P1;PMS_P2;Temp;Humidity;BMP_temperature;BMP_pressure;BME280_temperature;BME280_humidity;BME280_pressure;Samples;Min_cycle;Max_cycle;Signal;HPM_P1;HPM_P2
2022/12/02 00:01:38;;;;;;;72.13;29.98;;;2.70;99.90;;;;;;5025388;28;20037;-59
2022/12/02 00:04:24;;;;;;;63.95;29.55;;;2.70;99.90;;;;;;5026225;28;20119;-60
2022/12/02 00:06:52;;;;;;;69.78;31.38;;;2.70;99.90;;;;;;5025825;28;20435;-60
2022/12/02 00:09:25;;;;;;;70.00;31.58;;;2.70;99.90;;;;;;5025710;28;20077;-59
2022/12/02 00:11:51;;;;;;;60.60;29.15;;;2.70;99.90;;;;;;5006766;28;20444;-59
2022/12/02 00:14:21;;;;;;;66.00;29.58;;;2.70;99.90;;;;;;5006244;28;20041;-58
2022/12/02 00:16:47;;;;;;;74.10;29.38;;;2.70;99.90;;;;;;5020610;28;20037;-61
2022/12/02 00:19:13;;;;;;;69.57;30.55;;;2.70;99.90;;;;;;5026098;28;20535;-61
2022/12/02 00:21:38;;;;;;;68.60;29.52;;;2.70;99.90;;;;;;5025820;28;20045;-62
2022/12/02 00:24:04;;;;;;;62.53;27.73;;;2.70;99.90;;;;;;5025982;28;20052;-60
2022/12/02 00:26:30;;;;;;;68.75;29.90;;;2.70;99.90;;;;;;5025508;28;20046;-60
2022/12/02 00:28:55;;;;;;;73.55;30.70;;;2.70;99.90;;;;;;5026014;28;20099;-61
2022/12/02 00:31:21;;;;;;;68.05;30.40;;;2.70;99.90;;;;;;5024483;28;20065;-61
2022/12/02 00:33:46;;;;;;;71.95;29.70;;;2.70;99.90;;;;;;5025830;28;20049;-62
2022/12/02 00:36:12;;;;;;;59.88;27.05;;;2.70;99.90;;;;;;5024968;28;20037;-62
2022/12/02 00:38:37;;;;;;;56.90;26.08;;;2.70;99.90;;;;;;5025708;28;20040;-60
2022/12/02 00:41:03;;;;;;;55.95;25.35;;;2.70;99.90;;;;;;5014231;28;20460;-59
2022/12/02 00:46:31;;;;;;;53.78;23.77;;;2.70;99.90;;;;;;5017490;28;20061;-60
2022/12/02 00:49:08;;;;;;;47.15;22.45;;;2.70;99.90;;;;;;5025530;28;20471;-59
2022/12/02 00:51:35;;;;;;;46.08;21.42;;;2.70;99.90;;;;;;5024687;28;20128;-60
2022/12/02 00:54:01;;;;;;;50.85;22.40;;;2.70;99.90;;;;;;5023911;28;20048;-61
2022/12/02 00:56:26;;;;;;;48.28;22.55;;;2.70;99.90;;;;;;5023523;28;20045;-62
2022/12/02 00:58:52;;;;;;;51.78;22.55;;;2.60;99.90;;;;;;5025453;28;20041;-60
2022/12/02 01:01:18;;;;;;;52.10;23.45;;;2.70;99.90;;;;;;5024159;28;20474;-60
2022/12/02 01:03:44;;;;;;;53.38;24.70;;;2.60;99.90;;;;;;5025185;28;20043;-60
2022/12/02 01:06:10;;;;;;;60.13;26.17;;;2.60;99.90;;;;;;5023114;28;20041;-60
2022/12/02 01:08:35;;;;;;;64.68;26.75;;;2.70;99.90;;;;;;5025052;28;20462;-59
2022/12/02 01:11:01;;;;;;;66.57;28.15;;;2.60;99.90;;;;;;5024694;28;20037;-59
2022/12/02 01:13:27;;;;;;;66.82;28.02;;;2.60;99.90;;;;;;5025347;28;20052;-60
2022/12/02 01:15:54;;;;;;;67.68;27.77;;;2.60;99.90;;;;;;5024152;28;20041;-61
2022/12/02 01:18:19;;;;;;;67.38;26.85;;;2.60;99.90;;;;;;5009556;28;20084;-59
2022/12/02 01:20:45;;;;;;;63.30;27.85;;;2.60;99.90;;;;;;5011950;28;20037;-60
2022/12/02 01:23:11;;;;;;;57.25;25.63;;;2.60;99.90;;;;;;5024647;28;20045;-61
2022/12/02 01:25:36;;;;;;;58.83;25.98;;;2.60;99.90;;;;;;5024140;28;20037;-61
2022/12/02 01:28:02;;;;;;;56.75;23.67;;;2.60;99.90;;;;;;5023275;28;20041;-61
2022/12/02 01:30:28;;;;;;;52.75;24.27;;;2.50;99.90;;;;;;5023570;28;20045;-56
2022/12/02 01:32:53;;;;;;;52.28;22.85;;;2.50;99.90;;;;;;5023994;28;20602;-61
2022/12/02 01:35:19;;;;;;;59.97;23.25;;;2.50;99.90;;;;;;5022570;28;20037;-60
2022/12/02 01:37:45;;;;;;;52.53;23.17;;;2.50;99.90;;;;;;5023849;28;20366;-60
2022/12/02 01:40:11;;;;;;;53.67;24.33;;;2.50;99.90;;;;;;5022702;28;20103;-61
2022/12/02 01:42:38;;;;;;;55.28;23.70;;;2.50;99.90;;;;;;5024318;28;20041;-62
2022/12/02 01:45:05;;;;;;;51.90;23.75;;;2.50;99.90;;;;;;5023761;28;20053;-61
2022/12/02 01:47:30;;;;;;;53.55;23.42;;;2.50;99.90;;;;;;5023552;28;20081;-59
2022/12/02 01:49:56;;;;;;;57.00;24.08;;;2.50;99.90;;;;;;5023082;28;20079;-58
2022/12/02 01:52:23;;;;;;;57.45;23.50;;;2.50;99.90;;;;;;5024130;28;20696;-63
2022/12/02 01:54:50;;;;;;;61.03;25.08;;;2.40;99.90;;;;;;5022732;28;20049;-61
2022/12/02 01:57:17;;;;;;;66.82;25.00;;;2.40;99.90;;;;;;5024049;28;20128;-59
2022/12/02 01:59:42;;;;;;;63.72;27.10;;;2.40;99.90;;;;;;5024427;28;20513;-61
2022/12/02 02:02:28;;;;;;;66.55;26.38;;;2.40;99.90;;;;;;5022813;28;20076;-58
2022/12/02 02:04:58;;;;;;;57.85;25.52;;;2.40;99.90;;;;;;5021499;28;20298;-59
2022/12/02 02:07:24;;;;;;;58.80;25.48;;;2.40;99.90;;;;;;5003174;28;20045;-61
2022/12/02 02:09:50;;;;;;;62.35;26.00;;;2.40;99.90;;;;;;5004297;28;20472;-63
2022/12/02 02:12:16;;;;;;;69.38;27.70;;;2.40;99.90;;;;;;5014634;28;20393;-59
2022/12/02 02:14:41;;;;;;;71.53;27.80;;;2.40;99.90;;;;;;5023817;28;20041;-60
2022/12/02 02:17:07;;;;;;;71.07;30.83;;;2.40;99.90;;;;;;5022658;28;20103;-61
2022/12/02 02:19:33;;;;;;;66.22;28.17;;;2.40;99.90;;;;;;5022632;28;20100;-60
2022/12/02 02:22:03;;;;;;;64.30;28.30;;;2.40;99.90;;;;;;5022895;28;20511;-61
2022/12/02 02:24:28;;;;;;;72.93;28.42;;;2.30;99.90;;;;;;5024087;28;20037;-58
2022/12/02 02:26:54;;;;;;;69.10;28.23;;;2.30;99.90;;;;;;5022129;28;20115;-61
2022/12/02 02:29:19;;;;;;;74.70;30.23;;;2.30;99.90;;;;;;5023749;28;20274;-61
2022/12/02 02:31:45;;;;;;;64.60;26.55;;;2.30;99.90;;;;;;5022668;28;20091;-60
2022/12/02 02:34:11;;;;;;;73.78;29.25;;;2.30;99.90;;;;;;5022184;28;20049;-62
2022/12/02 02:36:36;;;;;;;66.68;28.83;;;2.30;99.90;;;;;;5023367;28;20546;-62
2022/12/02 02:39:02;;;;;;;71.70;29.05;;;2.30;99.90;;;;;;5022769;28;20147;-59
2022/12/02 02:41:28;;;;;;;70.57;28.90;;;2.30;99.90;;;;;;5022401;28;20246;-59
2022/12/02 02:43:54;;;;;;;68.95;29.30;;;2.20;99.90;;;;;;5021092;28;20507;-59
2022/12/02 02:46:20;;;;;;;72.25;28.45;;;2.20;99.90;;;;;;5022356;28;20476;-62
2022/12/02 02:48:47;;;;;;;70.20;28.30;;;2.10;99.90;;;;;;5002604;28;20071;-59
2022/12/02 02:51:13;;;;;;;71.63;28.75;;;2.10;99.90;;;;;;5014159;28;20702;-60
2022/12/02 02:53:39;;;;;;;67.15;28.45;;;2.10;99.90;;;;;;5022647;28;20080;-60
2022/12/02 02:56:05;;;;;;;71.78;30.13;;;2.10;99.90;;;;;;5023618;28;20480;-63
2022/12/02 02:58:33;;;;;;;70.38;28.85;;;2.10;99.90;;;;;;5020695;28;20037;-60
2022/12/02 03:01:10;;;;;;;64.30;26.58;;;2.10;99.90;;;;;;5021031;28;20046;-60
2022/12/02 03:03:41;;;;;;;62.50;25.95;;;2.10;99.90;;;;;;5022563;28;20055;-62
2022/12/02 03:06:08;;;;;;;67.30;27.77;;;2.10;99.90;;;;;;5023127;28;20053;-60
2022/12/02 03:08:35;;;;;;;71.65;27.65;;;2.10;99.90;;;;;;5021722;28;20041;-61
2022/12/02 03:11:01;;;;;;;63.20;27.02;;;2.10;99.90;;;;;;5023431;28;20400;-61
2022/12/02 03:13:29;;;;;;;60.55;25.75;;;2.10;99.90;;;;;;5022965;28;20554;-61
2022/12/02 03:15:55;;;;;;;66.03;27.77;;;2.00;99.90;;;;;;5019721;28;20046;-61
2022/12/02 03:18:20;;;;;;;63.42;25.52;;;2.00;99.90;;;;;;5022958;28;20064;-60
2022/12/02 03:20:46;;;;;;;62.75;25.05;;;2.00;99.90;;;;;;5027156;28;20041;-60
2022/12/02 03:23:13;;;;;;;62.03;25.27;;;2.00;99.90;;;;;;5027519;28;20037;-61
2022/12/02 03:25:38;;;;;;;55.30;25.65;;;2.00;99.90;;;;;;5027654;28;20038;-61
2022/12/02 03:28:04;;;;;;;58.03;23.85;;;2.00;99.90;;;;;;5026296;28;20709;-60
2022/12/02 03:30:31;;;;;;;59.78;27.17;;;2.00;99.90;;;;;;5026152;28;20492;-60
2022/12/02 03:32:57;;;;;;;62.63;25.38;;;2.00;99.90;;;;;;5026668;28;20060;-61
2022/12/02 03:35:23;;;;;;;57.25;25.10;;;2.00;99.90;;;;;;5026923;28;20076;-60
2022/12/02 03:37:49;;;;;;;62.55;26.25;;;2.00;99.90;;;;;;5026935;28;20044;-60
2022/12/02 03:40:15;;;;;;;64.85;27.48;;;2.00;99.90;;;;;;5025161;28;20068;-61
2022/12/02 03:42:41;;;;;;;65.20;26.50;;;2.00;99.90;;;;;;5027053;28;20046;-59
2022/12/02 03:45:08;;;;;;;64.57;26.70;;;2.00;99.90;;;;;;5026455;28;20041;-59
2022/12/02 03:47:34;;;;;;;64.13;26.05;;;2.00;99.90;;;;;;5026395;28;20076;-61
2022/12/02 03:50:00;;;;;;;65.38;26.63;;;2.00;99.90;;;;;;5026632;28;20072;-60
2022/12/02 03:52:27;;;;;;;62.38;25.75;;;2.00;99.90;;;;;;5026660;28;20610;-60
2022/12/02 03:54:53;;;;;;;68.05;26.10;;;2.00;99.90;;;;;;5026838;28;20045;-61
2022/12/02 03:57:18;;;;;;;63.40;25.33;;;1.90;99.90;;;;;;5025330;28;20044;-59
2022/12/02 03:59:44;;;;;;;63.55;25.42;;;1.90;99.90;;;;;;5025326;28;20251;-59
2022/12/02 04:02:10;;;;;;;72.93;27.83;;;1.90;99.90;;;;;;5025813;28;20586;-60
2022/12/02 04:04:35;;;;;;;65.50;27.38;;;1.90;99.90;;;;;;5026448;28;20227;-60
2022/12/02 04:07:01;;;;;;;65.53;27.05;;;1.90;99.90;;;;;;5026080;28;20068;-62
2022/12/02 04:09:26;;;;;;;61.63;26.38;;;1.90;99.90;;;;;;5026296;28;20091;-62
2022/12/02 04:11:52;;;;;;;69.57;27.75;;;1.90;99.90;;;;;;5026153;28;20042;-60
2022/12/02 04:14:17;;;;;;;69.68;26.40;;;1.80;99.90;;;;;;5025863;28;20044;-61
2022/12/02 04:16:43;;;;;;;61.38;26.33;;;1.90;99.90;;;;;;5025196;28;20046;-61
2022/12/02 04:19:09;;;;;;;76.07;27.58;;;1.80;99.90;;;;;;5026047;28;20104;-61
2022/12/02 04:21:35;;;;;;;72.68;28.77;;;1.80;99.90;;;;;;5025604;28;20120;-59
2022/12/02 04:24:00;;;;;;;73.80;28.23;;;1.80;99.90;;;;;;5025913;28;20590;-62
2022/12/02 04:26:26;;;;;;;68.10;26.08;;;1.80;99.90;;;;;;5025740;28;20054;-60
2022/12/02 04:28:52;;;;;;;77.18;28.35;;;1.80;99.90;;;;;;5026423;28;20042;-60
2022/12/02 04:31:17;;;;;;;73.97;27.27;;;1.80;99.90;;;;;;5024515;28;20120;-62
2022/12/02 04:33:43;;;;;;;80.35;30.08;;;1.80;99.90;;;;;;5025434;28;20114;-60
2022/12/02 04:36:08;;;;;;;73.50;28.80;;;1.80;99.90;;;;;;5025548;28;20684;-60
2022/12/02 04:38:34;;;;;;;68.93;27.45;;;1.80;99.90;;;;;;5025166;28;20575;-61
2022/12/02 04:40:59;;;;;;;82.35;29.50;;;1.80;99.90;;;;;;5025921;28;20087;-60
2022/12/02 04:43:25;;;;;;;77.15;29.90;;;1.70;99.90;;;;;;5025026;28;20037;-61
2022/12/02 04:45:50;;;;;;;76.20;29.98;;;1.70;99.90;;;;;;5025559;28;20038;-62
2022/12/02 04:48:16;;;;;;;74.50;28.42;;;1.70;99.90;;;;;;5025251;28;20045;-60
2022/12/02 04:50:41;;;;;;;75.93;29.98;;;1.70;99.90;;;;;;5023466;28;20137;-61
2022/12/02 04:53:07;;;;;;;79.68;30.38;;;1.70;99.90;;;;;;5025614;28;20052;-57
2022/12/02 04:55:32;;;;;;;76.78;30.52;;;1.70;99.90;;;;;;5025506;28;20037;-59
2022/12/02 04:57:58;;;;;;;88.63;32.30;;;1.70;99.90;;;;;;5025685;28;20120;-59
2022/12/02 05:00:24;;;;;;;85.30;32.40;;;1.70;99.90;;;;;;5024524;28;20146;-61
2022/12/02 05:02:49;;;;;;;77.72;30.92;;;1.70;99.90;;;;;;5024874;28;20059;-60
2022/12/02 05:05:15;;;;;;;80.82;31.65;;;1.70;99.90;;;;;;5024821;28;20045;-61
2022/12/02 05:07:40;;;;;;;87.57;32.00;;;1.70;99.90;;;;;;5025571;28;20048;-60
2022/12/02 05:10:07;;;;;;;90.53;30.58;;;1.70;99.90;;;;;;5024565;28;20111;-60
2022/12/02 05:12:32;;;;;;;92.53;31.35;;;1.70;99.90;;;;;;5025101;28;20061;-60
2022/12/02 05:14:58;;;;;;;87.13;31.33;;;1.70;99.90;;;;;;5024442;28;20072;-59
2022/12/02 05:17:23;;;;;;;88.53;32.58;;;1.70;99.90;;;;;;5023851;28;20037;-60
2022/12/02 05:19:49;;;;;;;91.47;32.78;;;1.70;99.90;;;;;;5023861;28;20077;-60
2022/12/02 05:22:14;;;;;;;82.97;31.35;;;1.70;99.90;;;;;;5023647;28;20041;-60
2022/12/02 05:24:40;;;;;;;82.28;31.35;;;1.70;99.90;;;;;;5039393;28;20076;-59
2022/12/02 05:27:06;;;;;;;87.85;32.65;;;1.70;99.90;;;;;;5024944;28;20501;-59
2022/12/02 05:29:31;;;;;;;88.32;31.90;;;1.70;99.90;;;;;;5025124;28;20520;-61
2022/12/02 05:31:57;;;;;;;84.03;30.10;;;1.70;99.90;;;;;;5023736;28;20124;-59
2022/12/02 05:34:22;;;;;;;90.30;32.55;;;1.70;99.90;;;;;;5023965;28;20034;-61
2022/12/02 05:36:48;;;;;;;87.05;31.25;;;1.70;99.90;;;;;;5021283;28;20116;-61
2022/12/02 05:39:13;;;;;;;81.55;31.08;;;1.80;99.90;;;;;;5022953;28;20500;-61
2022/12/02 05:41:39;;;;;;;90.05;32.17;;;1.80;99.90;;;;;;5024304;28;20064;-59
2022/12/02 05:44:18;;;;;;;92.32;32.00;;;1.80;99.90;;;;;;5024193;28;20048;-60
2022/12/02 05:46:43;;;;;;;89.35;32.53;;;1.80;99.90;;;;;;5038475;28;20445;-58
2022/12/02 05:49:20;;;;;;;81.38;31.05;;;1.80;99.90;;;;;;5024434;28;20071;-59
2022/12/02 05:51:56;;;;;;;89.03;30.73;;;1.80;99.90;;;;;;5023994;28;20621;-59
2022/12/02 05:54:22;;;;;;;89.72;31.33;;;1.80;99.90;;;;;;5024287;28;20049;-60
2022/12/02 05:56:48;;;;;;;96.85;31.20;;;1.80;99.90;;;;;;5024824;28;20048;-59
2022/12/02 05:59:16;;;;;;;88.22;31.15;;;1.90;99.90;;;;;;5024009;28;20477;-59
2022/12/02 06:01:49;;;;;;;82.50;31.20;;;1.90;99.90;;;;;;5023551;28;20130;-60
2022/12/02 06:04:19;;;;;;;89.13;31.73;;;1.90;99.90;;;;;;5024401;28;20084;-61
2022/12/02 06:06:45;;;;;;;88.18;32.72;;;1.90;99.90;;;;;;5022382;28;20162;-61
2022/12/02 06:09:16;;;;;;;89.43;31.17;;;1.90;99.90;;;;;;5023011;28;20684;-59
2022/12/02 06:11:45;;;;;;;87.18;30.67;;;1.90;99.90;;;;;;5023271;28;20124;-61
2022/12/02 06:14:23;;;;;;;83.43;31.27;;;1.90;99.90;;;;;;5023577;28;20088;-61
2022/12/02 06:16:52;;;;;;;89.72;30.52;;;1.90;99.90;;;;;;5020539;28;20223;-60
2022/12/02 06:19:38;;;;;;;93.15;32.75;;;1.90;99.90;;;;;;5023242;28;20033;-60
2022/12/02 06:22:13;;;;;;;88.00;32.38;;;1.90;99.90;;;;;;5027334;28;20057;-61
2022/12/02 06:24:38;;;;;;;88.90;31.85;;;1.90;99.90;;;;;;5022847;28;20038;-61
2022/12/02 06:27:04;;;;;;;85.97;30.90;;;1.90;99.90;;;;;;5023741;28;20094;-59
2022/12/02 06:29:31;;;;;;;88.20;31.95;;;2.00;99.90;;;;;;5023683;28;20459;-60
2022/12/02 06:31:58;;;;;;;93.22;32.33;;;2.00;99.90;;;;;;5020829;28;20049;-60
2022/12/02 06:34:35;;;;;;;92.18;31.67;;;2.00;99.90;;;;;;5023286;28;20041;-59
2022/12/02 06:37:09;;;;;;;109.15;35.35;;;2.00;99.90;;;;;;5022095;28;20041;-58
2022/12/02 06:39:37;;;;;;;100.03;32.40;;;2.00;99.90;;;;;;5020358;28;20052;-60
2022/12/02 06:42:19;;;;;;;96.78;31.65;;;2.10;99.90;;;;;;5023310;28;20072;-58
2022/12/02 06:47:31;;;;;;;104.72;35.80;;;2.10;99.90;;;;;;5021869;28;20124;-61
2022/12/02 06:50:04;;;;;;;103.85;33.35;;;2.10;99.90;;;;;;5018673;28;20049;-59
2022/12/02 06:52:48;;;;;;;106.88;33.63;;;2.20;99.90;;;;;;5022332;28;20053;-60
2022/12/02 06:55:30;;;;;;;101.22;33.15;;;2.20;99.90;;;;;;5026384;28;20041;-59
2022/12/02 06:58:04;;;;;;;101.97;33.10;;;2.20;99.90;;;;;;5027275;28;20041;-59
2022/12/02 07:00:31;;;;;;;95.97;33.03;;;2.20;99.90;;;;;;5021151;28;20041;-60
2022/12/02 07:02:57;;;;;;;89.53;30.83;;;2.30;99.90;;;;;;5026530;28;20477;-60
2022/12/02 07:05:22;;;;;;;89.65;32.50;;;2.30;99.90;;;;;;5025070;28;20033;-62
2022/12/02 07:07:49;;;;;;;82.70;30.67;;;2.30;99.90;;;;;;5026115;28;20452;-61
2022/12/02 07:10:26;;;;;;;84.90;30.13;;;2.30;99.90;;;;;;5024836;28;20124;-61
2022/12/02 07:12:52;;;;;;;85.70;31.17;;;2.30;99.90;;;;;;5026148;28;20508;-60
2022/12/02 07:15:32;;;;;;;89.97;33.78;;;2.30;99.90;;;;;;5025697;28;20124;-61
2022/12/02 07:18:08;;;;;;;85.70;33.35;;;2.30;99.90;;;;;;5026417;28;20067;-61
2022/12/02 07:20:38;;;;;;;78.30;29.75;;;2.20;99.90;;;;;;5024786;28;20040;-63
2022/12/02 07:23:13;;;;;;;79.05;30.15;;;2.20;99.90;;;;;;5026566;28;20080;-62
2022/12/02 07:25:45;;;;;;;86.95;30.88;;;2.20;99.90;;;;;;5025655;28;20519;-60
2022/12/02 07:28:20;;;;;;;79.72;29.90;;;2.10;99.90;;;;;;5026618;28;20116;-58
2022/12/02 07:30:57;;;;;;;77.68;28.52;;;2.10;99.90;;;;;;5025851;28;20335;-62
2022/12/02 07:33:23;;;;;;;79.90;30.30;;;2.10;99.90;;;;;;5023565;28;20059;-61
2022/12/02 07:35:49;;;;;;;83.15;30.60;;;2.10;99.90;;;;;;5040744;28;20045;-63
2022/12/02 07:38:14;;;;;;;75.35;28.20;;;2.10;99.90;;;;;;5024500;28;20476;-59
2022/12/02 07:40:42;;;;;;;81.95;28.50;;;2.10;99.90;;;;;;5025533;28;20687;-59
2022/12/02 07:43:08;;;;;;;78.07;30.02;;;2.10;99.90;;;;;;5026244;28;20037;-59
2022/12/02 07:45:33;;;;;;;85.53;30.65;;;2.10;99.90;;;;;;5024352;28;20508;-62
2022/12/02 07:47:59;;;;;;;84.05;30.35;;;2.00;99.90;;;;;;5025697;28;20045;-59
2022/12/02 07:50:25;;;;;;;87.10;31.42;;;2.00;99.90;;;;;;5025476;28;20041;-63
2022/12/02 07:52:51;;;;;;;80.30;30.25;;;2.00;99.90;;;;;;5025880;28;20064;-62
2022/12/02 07:55:17;;;;;;;86.05;31.58;;;2.00;99.90;;;;;;5024545;28;20041;-60
2022/12/02 07:57:42;;;;;;;89.28;30.92;;;2.00;99.90;;;;;;5026002;28;20044;-61
2022/12/02 08:00:09;;;;;;;89.90;29.70;;;2.00;99.90;;;;;;5025579;28;20046;-60
2022/12/02 08:02:35;;;;;;;96.93;31.92;;;2.00;99.90;;;;;;5025597;28;20037;-59
2022/12/02 08:05:00;;;;;;;96.57;30.65;;;2.00;99.90;;;;;;5025541;28;20451;-60
2022/12/02 08:07:26;;;;;;;75.78;26.83;;;1.90;99.90;;;;;;5024522;28;20309;-63
2022/12/02 08:09:51;;;;;;;76.43;27.10;;;1.90;99.90;;;;;;5025056;28;20501;-60
2022/12/02 08:12:17;;;;;;;78.05;28.30;;;1.90;99.90;;;;;;5026038;28;20659;-61
2022/12/02 08:14:43;;;;;;;81.15;27.27;;;1.90;99.90;;;;;;5023383;28;20053;-62
2022/12/02 08:17:08;;;;;;;82.68;29.27;;;1.90;99.90;;;;;;5024643;28;20032;-62
2022/12/02 08:19:34;;;;;;;74.53;28.77;;;1.90;99.90;;;;;;5024877;28;20226;-60
2022/12/02 08:21:59;;;;;;;85.95;28.83;;;1.90;99.90;;;;;;5024753;28;20797;-59
2022/12/02 08:24:25;;;;;;;75.72;27.90;;;1.80;99.90;;;;;;5024253;28;20045;-63
2022/12/02 08:26:50;;;;;;;76.35;27.75;;;1.80;99.90;;;;;;5025874;28;20045;-61
2022/12/02 08:29:16;;;;;;;79.43;27.02;;;1.80;99.90;;;;;;5024761;28;20689;-62
2022/12/02 08:31:41;;;;;;;79.25;27.83;;;1.80;99.90;;;;;;5024588;28;20069;-61
2022/12/02 08:34:07;;;;;;;80.38;28.35;;;1.80;99.90;;;;;;5025006;28;20099;-64
2022/12/02 08:36:33;;;;;;;80.03;28.80;;;1.70;99.90;;;;;;5039855;28;20823;-59
2022/12/02 08:39:01;;;;;;;76.70;27.58;;;1.70;99.90;;;;;;5023868;28;20120;-60
2022/12/02 08:41:27;;;;;;;78.18;27.70;;;1.70;99.90;;;;;;5025374;28;20091;-59
2022/12/02 08:43:52;;;;;;;84.97;28.70;;;1.70;99.90;;;;;;5023657;28;20293;-60
2022/12/02 08:46:18;;;;;;;80.53;28.05;;;1.70;99.90;;;;;;5023346;28;20056;-61
2022/12/02 08:48:44;;;;;;;73.82;27.88;;;1.70;99.90;;;;;;5021389;28;20488;-61
2022/12/02 08:51:09;;;;;;;69.30;26.00;;;1.70;99.90;;;;;;5004546;28;20069;-61
2022/12/02 08:53:35;;;;;;;64.72;23.20;;;1.70;99.90;;;;;;5007809;28;20057;-63
2022/12/02 08:56:00;;;;;;;69.05;24.67;;;1.70;99.90;;;;;;5024701;28;20413;-60
2022/12/02 08:58:26;;;;;;;60.03;22.88;;;1.70;99.90;;;;;;5024191;28;20527;-61
2022/12/02 09:00:51;;;;;;;74.78;23.85;;;1.70;99.90;;;;;;5024349;28;20548;-61
2022/12/02 09:03:17;;;;;;;66.65;25.63;;;1.60;99.90;;;;;;5023997;28;20049;-59
2022/12/02 09:05:43;;;;;;;70.43;24.40;;;1.60;99.90;;;;;;5014352;28;20137;-59
2022/12/02 09:08:09;;;;;;;75.00;25.30;;;1.60;99.90;;;;;;5004243;28;20041;-60
2022/12/02 09:10:34;;;;;;;70.32;24.75;;;1.60;99.90;;;;;;5005348;28;20111;-60
2022/12/02 09:13:00;;;;;;;78.18;25.80;;;1.60;99.90;;;;;;5017240;28;20298;-61
2022/12/02 09:15:26;;;;;;;78.68;27.52;;;1.60;99.90;;;;;;5039745;28;20103;-60
2022/12/02 09:17:51;;;;;;;78.05;26.35;;;1.60;99.90;;;;;;5023737;28;20042;-59
2022/12/02 09:20:17;;;;;;;80.80;27.23;;;1.70;99.90;;;;;;5020950;28;20069;-58
2022/12/02 09:22:46;;;;;;;89.22;28.63;;;1.70;99.90;;;;;;5024449;28;20053;-61
2022/12/02 09:25:12;;;;;;;89.28;28.45;;;1.70;99.90;;;;;;5023730;28;20052;-59
2022/12/02 09:27:38;;;;;;;93.68;28.45;;;1.70;99.90;;;;;;5024771;28;20053;-61
2022/12/02 09:30:05;;;;;;;88.82;29.33;;;1.70;99.90;;;;;;5023980;28;20488;-60
2022/12/02 09:32:31;;;;;;;94.38;29.42;;;1.70;99.90;;;;;;5021323;28;20073;-60
2022/12/02 09:34:57;;;;;;;93.15;29.10;;;1.70;99.90;;;;;;5023477;28;20123;-59
2022/12/02 09:37:22;;;;;;;91.10;29.73;;;1.70;99.90;;;;;;5023670;28;20412;-59
2022/12/02 09:39:48;;;;;;;92.22;31.45;;;1.80;99.90;;;;;;5023353;28;20033;-62
2022/12/02 09:42:15;;;;;;;84.82;29.52;;;1.80;99.90;;;;;;5024080;28;20041;-62
2022/12/02 09:44:42;;;;;;;77.38;30.05;;;1.90;99.90;;;;;;5023780;28;20053;-61
2022/12/02 09:47:09;;;;;;;82.80;29.48;;;1.90;99.90;;;;;;5023027;28;20048;-60
2022/12/02 09:49:35;;;;;;;83.35;31.15;;;1.90;99.90;;;;;;5023211;28;20546;-61
2022/12/02 09:52:05;;;;;;;80.82;28.67;;;1.90;99.90;;;;;;5021486;28;20654;-59
2022/12/02 09:54:31;;;;;;;84.38;30.92;;;1.90;99.90;;;;;;5023174;28;20352;-63
2022/12/02 09:56:58;;;;;;;76.63;29.55;;;1.80;99.90;;;;;;5024437;28;20152;-62
2022/12/02 09:59:24;;;;;;;80.78;29.92;;;1.80;99.90;;;;;;5023244;28;20112;-61
2022/12/02 10:01:50;;;;;;;71.68;27.40;;;1.80;99.90;;;;;;5022838;28;20107;-60
2022/12/02 10:04:19;;;;;;;80.63;28.88;;;1.80;99.90;;;;;;5023384;28;20453;-63
2022/12/02 10:06:44;;;;;;;82.30;30.88;;;1.80;99.90;;;;;;5023209;28;20350;-63
2022/12/02 10:09:23;;;;;;;94.05;30.10;;;1.80;99.90;;;;;;5022971;28;20085;-59
2022/12/02 10:11:49;;;;;;;92.03;30.73;;;1.80;99.90;;;;;;5023989;28;20057;-59
2022/12/02 10:14:15;;;;;;;79.57;28.92;;;1.80;99.90;;;;;;5023231;28;20068;-60
2022/12/02 10:16:41;;;;;;;85.47;30.35;;;1.80;99.90;;;;;;5022651;28;20049;-57
2022/12/02 10:19:11;;;;;;;94.50;31.15;;;1.80;99.90;;;;;;5022998;28;20515;-60
2022/12/02 10:21:37;;;;;;;90.80;33.17;;;1.80;99.90;;;;;;5022872;28;20554;-60
2022/12/02 10:24:07;;;;;;;84.00;30.17;;;1.80;99.90;;;;;;5022290;28;20053;-60
2022/12/02 10:26:51;;;;;;;91.70;30.90;;;1.80;99.90;;;;;;5023870;28;20404;-59
2022/12/02 10:29:27;;;;;;;95.55;33.70;;;1.70;99.90;;;;;;5020246;28;20057;-61
2022/12/02 10:31:59;;;;;;;90.47;32.72;;;1.70;99.90;;;;;;5022891;28;20046;-59
2022/12/02 10:34:26;;;;;;;93.90;30.55;;;1.70;99.90;;;;;;5021707;28;20460;-60
2022/12/02 10:36:52;;;;;;;96.03;31.00;;;1.70;99.90;;;;;;5023010;28;20034;-58
2022/12/02 10:39:25;;;;;;;101.97;33.25;;;1.70;99.90;;;;;;5022169;28;20049;-60
2022/12/02 10:42:02;;;;;;;87.57;31.05;;;1.70;99.90;;;;;;5023184;28;20037;-59
2022/12/02 10:44:29;;;;;;;89.47;32.35;;;1.70;99.90;;;;;;5023094;28;20444;-59
2022/12/02 10:47:10;;;;;;;81.07;32.30;;;1.70;99.90;;;;;;5022408;28;21888;-61
2022/12/02 10:49:36;;;;;;;91.75;32.88;;;1.70;99.90;;;;;;5022631;28;20128;-59
2022/12/02 10:52:07;;;;;;;81.55;31.13;;;1.70;99.90;;;;;;5021965;28;20104;-61
2022/12/02 10:54:33;;;;;;;91.25;31.50;;;1.70;99.90;;;;;;5022682;28;20453;-59
2022/12/02 10:57:00;;;;;;;93.88;32.58;;;1.70;99.90;;;;;;5023790;28;20127;-59
2022/12/02 10:59:28;;;;;;;92.78;32.30;;;1.70;99.90;;;;;;5022766;28;20046;-61
2022/12/02 11:01:54;;;;;;;79.07;30.67;;;1.70;99.90;;;;;;5022528;28;20043;-61
2022/12/02 11:04:20;;;;;;;88.03;33.33;;;1.70;99.90;;;;;;5022865;28;20041;-62
2022/12/02 11:06:46;;;;;;;98.18;33.58;;;1.70;99.90;;;;;;5022601;28;20044;-60
2022/12/02 11:09:19;;;;;;;86.63;33.58;;;1.70;99.90;;;;;;5023267;28;20110;-60
2022/12/02 11:11:45;;;;;;;85.38;32.45;;;1.70;99.90;;;;;;5021657;28;20041;-61
2022/12/02 11:14:13;;;;;;;89.05;33.20;;;1.70;99.90;;;;;;5022909;28;20042;-61
2022/12/02 11:16:39;;;;;;;91.78;34.05;;;1.70;99.90;;;;;;5022119;28;20038;-59
2022/12/02 11:19:07;;;;;;;89.70;33.45;;;1.70;99.90;;;;;;5022186;28;20044;-61
2022/12/02 11:21:38;;;;;;;87.72;35.13;;;1.70;99.90;;;;;;5037867;28;20038;-62
2022/12/02 11:24:22;;;;;;;97.20;36.30;;;1.70;99.90;;;;;;5021850;28;20100;-60
2022/12/02 11:27:00;;;;;;;88.30;34.22;;;1.80;99.90;;;;;;5023535;28;20225;-58
2022/12/02 11:29:40;;;;;;;100.47;36.63;;;1.80;99.90;;;;;;5022770;28;20050;-59
2022/12/02 11:32:38;;;;;;;89.88;35.00;;;1.80;99.90;;;;;;5022141;28;20034;-59
2022/12/02 11:35:12;;;;;;;85.05;33.95;;;1.80;99.90;;;;;;5022067;28;20388;-64
2022/12/02 11:37:40;;;;;;;85.95;34.60;;;1.80;99.90;;;;;;5022367;28;20033;-59
2022/12/02 11:40:09;;;;;;;83.57;34.83;;;1.80;99.90;;;;;;5023461;28;20042;-59
2022/12/02 11:42:36;;;;;;;88.85;34.80;;;1.90;99.90;;;;;;5027029;28;20223;-62
2022/12/02 11:45:16;;;;;;;80.78;33.42;;;1.90;99.90;;;;;;5024139;28;20103;-60
2022/12/02 11:47:52;;;;;;;84.93;34.50;;;1.90;99.90;;;;;;5025431;28;20037;-58
2022/12/02 11:50:30;;;;;;;80.82;33.42;;;1.90;99.90;;;;;;5024905;28;20137;-60
2022/12/02 11:53:00;;;;;;;84.07;35.30;;;1.90;99.90;;;;;;5026108;28;20064;-60
2022/12/02 11:55:33;;;;;;;81.07;36.22;;;1.90;99.90;;;;;;5025745;28;20405;-59
2022/12/02 11:58:00;;;;;;;81.38;34.30;;;1.90;99.90;;;;;;5025871;28;20037;-60
2022/12/02 12:00:31;;;;;;;84.68;35.50;;;1.90;99.90;;;;;;5024286;28;20072;-60
2022/12/02 12:03:15;;;;;;;80.60;35.17;;;2.00;99.90;;;;;;5026233;28;20045;-65
2022/12/02 12:06:00;;;;;;;76.87;32.87;;;2.00;99.90;;;;;;5041960;28;20054;-59
2022/12/02 12:08:26;;;;;;;76.05;34.03;;;2.00;99.90;;;;;;5025002;28;20299;-61
2022/12/02 12:11:33;;;;;;;79.32;35.25;;;2.00;99.90;;;;;;5025684;28;20045;-60
2022/12/02 12:14:12;;;;;;;76.78;33.60;;;2.00;99.90;;;;;;5025730;28;20042;-60
2022/12/02 12:16:42;;;;;;;74.30;34.60;;;2.00;99.90;;;;;;5025354;28;20048;-61
2022/12/02 12:19:10;;;;;;;83.55;35.78;;;2.10;99.90;;;;;;5025925;28;20045;-60
2022/12/02 12:21:41;;;;;;;79.38;35.85;;;2.10;99.90;;;;;;5025427;28;20089;-60
2022/12/02 12:24:16;;;;;;;70.50;34.22;;;2.10;99.90;;;;;;5024727;28;20162;-62
2022/12/02 12:26:47;;;;;;;72.15;33.47;;;2.10;99.90;;;;;;5025588;28;20037;-61
2022/12/02 12:29:13;;;;;;;77.40;36.35;;;2.00;99.90;;;;;;5024779;28;20041;-58
2022/12/02 12:31:38;;;;;;;81.95;35.40;;;2.00;99.90;;;;;;5025322;28;20045;-59
2022/12/02 12:34:05;;;;;;;83.18;36.38;;;2.00;99.90;;;;;;5024672;28;20107;-58
2022/12/02 12:36:31;;;;;;;81.05;37.85;;;2.00;99.90;;;;;;5024798;28;20042;-58
2022/12/02 12:38:56;;;;;;;86.85;37.50;;;2.00;99.90;;;;;;5024779;28;20044;-58
2022/12/02 12:41:22;;;;;;;87.32;39.58;;;2.00;99.90;;;;;;5023665;28;20063;-61
2022/12/02 12:43:49;;;;;;;85.50;36.13;;;1.90;99.90;;;;;;5024400;28;20041;-60
2022/12/02 12:46:15;;;;;;;91.40;38.97;;;1.90;99.90;;;;;;5024643;28;20041;-57